createdAt,value
2022-12-08T00:12:42.751Z,5.90
2022-12-08T00:16:08.402Z,5.90
2022-12-08T00:19:33.016Z,5.90
2022-12-08T00:26:20.283Z,5.90
2022-12-08T00:29:45.477Z,6.00
2022-12-08T00:33:10.795Z,6.00
2022-12-08T00:36:34.909Z,5.90
2022-12-08T00:50:12.809Z,5.80
2022-12-08T00:57:00.327Z,5.50
2022-12-08T01:07:13.619Z,5.20
2022-12-08T01:14:01.658Z,5.00
2022-12-08T01:17:25.226Z,4.90
2022-12-08T01:20:48.794Z,4.90
2022-12-08T01:24:16.613Z,4.80
2022-12-08T01:27:40.321Z,4.70
2022-12-08T01:31:04.021Z,4.70
2022-12-08T01:34:27.610Z,4.70
2022-12-08T01:37:52.112Z,4.60
2022-12-08T01:45:02.687Z,4.50
2022-12-08T01:58:55.453Z,4.50
2022-12-08T02:02:19.365Z,4.50
2022-12-08T02:05:43.112Z,4.50
2022-12-08T02:09:07.638Z,4.40
2022-12-08T02:12:31.532Z,4.30
2022-12-08T02:16:06.248Z,4.30
2022-12-08T02:20:17.370Z,4.30
2022-12-08T02:23:56.220Z,4.20
2022-12-08T02:27:42.013Z,4.20
2022-12-08T02:31:22.700Z,4.20
2022-12-08T02:35:00.220Z,4.20
2022-12-08T02:42:11.901Z,4.20
2022-12-08T02:49:05.375Z,4.10
2022-12-08T02:56:36.368Z,4.10
2022-12-08T03:00:10.605Z,3.90
2022-12-08T03:03:46.435Z,3.90
2022-12-08T03:07:20.919Z,3.80
2022-12-08T03:10:54.392Z,3.80
2022-12-08T03:14:20.346Z,3.70
2022-12-08T03:17:50.229Z,3.60
2022-12-08T03:21:19.133Z,3.60
2022-12-08T03:24:46.278Z,3.60
2022-12-08T03:28:12.727Z,3.60
2022-12-08T03:31:45.114Z,3.60
2022-12-08T03:35:15.116Z,3.50
2022-12-08T03:42:03.420Z,3.50
2022-12-08T03:45:28.465Z,3.50
2022-12-08T03:48:52.360Z,3.50
2022-12-08T03:52:15.935Z,3.50
2022-12-08T04:02:29.063Z,3.50
2022-12-08T04:05:52.929Z,3.50
2022-12-08T04:09:16.471Z,3.40
2022-12-08T04:16:05.054Z,3.40
2022-12-08T04:19:30.551Z,3.10
2022-12-08T04:29:42.603Z,3.30
2022-12-08T04:36:31.583Z,3.20
2022-12-08T04:43:19.135Z,3.20
2022-12-08T04:50:09.122Z,3.10
2022-12-08T04:53:34.455Z,3.10
2022-12-08T05:00:22.544Z,3.00
2022-12-08T05:03:46.095Z,3.00
2022-12-08T05:10:35.248Z,3.00
2022-12-08T05:17:23.048Z,3.00
2022-12-08T05:20:46.634Z,3.00
2022-12-08T05:27:36.082Z,3.00
2022-12-08T05:37:47.284Z,2.90
2022-12-08T05:41:15.344Z,2.90
2022-12-08T05:44:40.116Z,2.90
2022-12-08T05:48:03.648Z,2.80
2022-12-08T05:51:27.178Z,3.20
2022-12-08T05:54:50.661Z,2.80
2022-12-08T05:58:17.393Z,2.80
2022-12-08T06:01:42.618Z,2.80
2022-12-08T06:08:30.646Z,2.90
2022-12-08T06:15:19.541Z,2.80
2022-12-08T06:18:46.016Z,2.80
2022-12-08T06:22:09.518Z,2.70
2022-12-08T06:46:15.406Z,2.60
2022-12-08T06:53:05.656Z,3.10
2022-12-08T06:59:53.752Z,2.50
2022-12-08T07:03:17.303Z,2.50
2022-12-08T07:10:08.568Z,2.50
2022-12-08T07:23:50.204Z,2.60
2022-12-08T07:27:19.008Z,2.60
2022-12-08T07:40:55.075Z,2.70
2022-12-08T07:44:19.948Z,2.70
2022-12-08T07:47:43.764Z,2.60
2022-12-08T07:54:31.599Z,2.70
2022-12-08T08:01:27.665Z,2.80
2022-12-08T08:18:33.702Z,2.70
2022-12-08T08:28:48.126Z,2.80
2022-12-08T08:39:01.587Z,2.80
2022-12-08T08:42:25.172Z,2.80
2022-12-08T08:49:14.673Z,2.90
2022-12-08T08:52:39.876Z,2.90
2022-12-08T08:56:05.080Z,2.90
2022-12-08T08:59:29.550Z,2.90
2022-12-08T09:02:53.109Z,3.00
2022-12-08T09:06:18.521Z,3.00
2022-12-08T09:09:45.267Z,3.00
2022-12-08T09:13:08.940Z,3.10
2022-12-08T09:16:36.199Z,3.10
2022-12-08T09:20:02.999Z,3.10
2022-12-08T09:23:30.789Z,3.20
2022-12-08T09:27:00.204Z,3.30
2022-12-08T09:30:23.890Z,3.80
2022-12-08T09:33:48.549Z,3.40
2022-12-08T09:37:12.291Z,3.40
2022-12-08T09:40:44.951Z,3.50
2022-12-08T09:44:39.654Z,3.50
2022-12-08T09:48:11.426Z,3.50
2022-12-08T09:51:40.468Z,3.60
2022-12-08T09:55:17.661Z,3.70
2022-12-08T09:58:53.567Z,3.70
2022-12-08T10:02:25.441Z,3.80
2022-12-08T10:05:58.632Z,3.90
2022-12-08T10:09:36.162Z,3.90
2022-12-08T10:13:09.378Z,3.90
2022-12-08T10:16:40.182Z,4.00
2022-12-08T10:20:14.393Z,4.00
2022-12-08T10:23:42.094Z,4.00
2022-12-08T10:27:11.781Z,4.10
2022-12-08T10:34:02.567Z,4.20
2022-12-08T10:37:27.648Z,4.40
2022-12-08T10:40:54.709Z,4.80
2022-12-08T10:47:45.500Z,6.90
2022-12-08T10:51:37.424Z,8.10
2022-12-08T10:55:03.043Z,9.30
2022-12-08T10:58:31.491Z,9.40
2022-12-08T11:01:57.963Z,10.50
2022-12-08T11:05:24.003Z,11.80
2022-12-08T11:08:52.706Z,11.90
2022-12-08T11:12:19.536Z,11.80
2022-12-08T11:15:46.990Z,11.80
2022-12-08T11:19:17.889Z,11.50
2022-12-08T11:22:43.673Z,11.20
2022-12-08T11:26:20.810Z,10.80
2022-12-08T11:29:45.749Z,10.50
2022-12-08T11:33:19.295Z,9.80
2022-12-08T11:36:43.296Z,9.50
2022-12-08T11:40:17.382Z,9.30
2022-12-08T11:43:51.855Z,9.00
2022-12-08T11:47:25.290Z,8.90
2022-12-08T11:50:54.596Z,8.70
2022-12-08T11:54:28.748Z,8.70
2022-12-08T11:57:55.296Z,8.70
2022-12-08T12:01:22.976Z,8.70
2022-12-08T12:04:55.443Z,8.70
2022-12-08T12:08:42.663Z,8.70
2022-12-08T12:12:19.215Z,8.70
2022-12-08T12:16:26.402Z,8.80
2022-12-08T12:19:53.635Z,8.80
2022-12-08T12:23:24.741Z,8.70
2022-12-08T12:27:01.741Z,8.70
2022-12-08T12:30:28.067Z,8.50
2022-12-08T12:33:54.996Z,8.50
2022-12-08T12:37:24.158Z,8.50
2022-12-08T12:40:47.752Z,8.40
2022-12-08T12:44:38.272Z,8.40
2022-12-08T12:48:26.161Z,8.40
2022-12-08T12:51:56.323Z,8.40
2022-12-08T12:55:55.869Z,8.30
2022-12-08T12:59:44.096Z,8.30
2022-12-08T13:03:16.847Z,8.30
2022-12-08T13:06:45.371Z,8.30
2022-12-08T13:10:20.198Z,8.30
2022-12-08T13:13:58.617Z,8.20
2022-12-08T13:17:29.356Z,8.20
2022-12-08T13:20:59.987Z,8.20
2022-12-08T13:24:33.370Z,8.10
2022-12-08T13:31:45.239Z,7.90
2022-12-08T13:35:13.844Z,8.00
2022-12-08T13:38:40.021Z,7.80
2022-12-08T13:42:14.591Z,7.80
2022-12-08T13:46:48.672Z,7.90
2022-12-08T13:57:15.094Z,7.70
2022-12-08T14:00:39.185Z,7.60
2022-12-08T14:04:34.193Z,7.60
2022-12-08T14:07:52.712Z,7.50
2022-12-08T14:11:35.803Z,7.50
2022-12-08T14:15:04.682Z,7.50
2022-12-08T14:18:31.986Z,7.40
2022-12-08T14:22:00.039Z,7.40
2022-12-08T14:25:27.744Z,7.40
2022-12-08T14:32:31.412Z,7.30
2022-12-08T14:35:57.433Z,7.30
2022-12-08T14:39:21.868Z,7.20
2022-12-08T14:42:49.273Z,7.10
2022-12-08T14:49:47.966Z,7.10
2022-12-08T14:53:16.024Z,7.10
2022-12-08T14:56:43.184Z,7.10
2022-12-08T15:00:22.247Z,7.10
2022-12-08T15:21:32.591Z,7.10
2022-12-08T15:24:57.318Z,7.10
2022-12-08T15:28:29.489Z,7.00
2022-12-08T15:31:56.481Z,7.00
2022-12-08T15:35:22.498Z,7.00
2022-12-08T15:38:46.082Z,6.90
2022-12-08T15:42:13.901Z,6.90
2022-12-08T15:45:37.759Z,7.00
2022-12-08T15:49:01.389Z,6.80
2022-12-08T15:52:26.581Z,6.80
2022-12-08T15:56:25.788Z,6.80
2022-12-08T15:59:34.383Z,6.80
2022-12-08T16:03:27.910Z,6.80
2022-12-08T16:07:20.278Z,6.80
2022-12-08T16:10:45.537Z,7.10
2022-12-08T16:14:48.720Z,6.80
2022-12-08T16:17:56.904Z,6.70
2022-12-08T16:21:53.437Z,6.70
2022-12-08T16:25:17.689Z,6.70
2022-12-08T16:28:53.951Z,6.70
2022-12-08T16:32:19.077Z,6.70
2022-12-08T16:35:43.892Z,6.70
2022-12-08T16:39:07.466Z,6.70
2022-12-08T16:42:44.369Z,6.70
2022-12-08T16:46:23.201Z,6.70
2022-12-08T16:49:46.750Z,6.70
2022-12-08T16:53:12.620Z,6.60
2022-12-08T16:56:36.134Z,6.60
2022-12-08T16:59:59.576Z,6.80
2022-12-08T17:03:24.401Z,6.60
2022-12-08T17:10:17.402Z,6.50
2022-12-08T17:13:43.180Z,6.50
2022-12-08T17:17:07.041Z,6.50
2022-12-08T17:20:34.052Z,6.50
2022-12-08T17:27:21.639Z,6.40
2022-12-08T17:30:45.213Z,6.40
2022-12-08T17:34:10.323Z,6.40
2022-12-08T17:37:35.333Z,6.40
2022-12-08T17:41:05.087Z,6.40
2022-12-08T17:51:17.086Z,6.40
2022-12-08T17:54:42.178Z,6.40
2022-12-08T17:58:06.738Z,6.30
2022-12-08T18:11:47.403Z,6.20
2022-12-08T18:15:17.701Z,6.30
2022-12-08T18:18:41.230Z,6.30
2022-12-08T18:22:04.873Z,6.30
2022-12-08T18:25:28.370Z,6.30
2022-12-08T18:28:53.181Z,6.30
2022-12-08T18:35:41.225Z,6.30
2022-12-08T18:39:10.489Z,6.30
2022-12-08T18:46:04.122Z,6.40
2022-12-08T18:56:25.230Z,6.30
2022-12-08T19:13:29.245Z,6.40
2022-12-08T19:41:01.580Z,5.40
2022-12-08T19:54:57.660Z,5.10
2022-12-08T19:58:21.198Z,4.90
2022-12-08T20:18:48.560Z,4.50
2022-12-08T21:03:18.632Z,3.80
2022-12-08T21:30:35.183Z,3.60
2022-12-08T21:40:48.636Z,3.60
2022-12-08T21:54:31.874Z,3.40
2022-12-08T22:01:20.591Z,3.40
2022-12-08T22:08:08.595Z,3.40
2022-12-08T22:11:33.733Z,3.40
2022-12-08T22:18:21.101Z,3.40
2022-12-08T22:21:45.085Z,3.30
2022-12-08T22:25:11.921Z,3.30
2022-12-08T22:28:40.283Z,3.30
2022-12-08T22:59:17.389Z,3.10
2022-12-08T23:02:42.323Z,3.10
2022-12-08T23:09:37.671Z,3.10
2022-12-08T23:40:21.171Z,2.90
2022-12-08T23:43:47.001Z,2.80
2022-12-08T23:47:10.522Z,2.70
2022-12-08T23:53:59.232Z,2.70
